createdAt,value
2023-03-31T00:02:14.012Z,11.90
2023-03-31T00:04:53.033Z,11.90
2023-03-31T00:07:24.936Z,11.80
2023-03-31T00:10:07.078Z,11.80
2023-03-31T00:12:47.172Z,11.80
2023-03-31T00:15:20.058Z,11.80
2023-03-31T00:17:50.326Z,11.70
2023-03-31T00:20:20.838Z,11.70
2023-03-31T00:22:55.194Z,11.60
2023-03-31T00:25:25.660Z,11.60
2023-03-31T00:27:57.436Z,11.60
2023-03-31T00:30:32.586Z,11.60
2023-03-31T00:33:03.681Z,11.60
2023-03-31T00:35:34.092Z,11.60
2023-03-31T00:38:04.597Z,11.50
2023-03-31T00:40:35.101Z,11.50
2023-03-31T00:43:06.552Z,11.50
2023-03-31T00:45:40.104Z,11.60
2023-03-31T00:48:18.577Z,11.60
2023-03-31T00:50:57.074Z,11.60
2023-03-31T00:53:35.011Z,11.50
2023-03-31T00:56:15.380Z,11.40
2023-03-31T00:58:50.433Z,11.30
2023-03-31T01:01:27.420Z,11.30
2023-03-31T01:03:59.430Z,11.30
2023-03-31T01:06:35.678Z,11.30
2023-03-31T01:09:08.411Z,11.20
2023-03-31T01:11:40.042Z,11.20
2023-03-31T01:14:10.710Z,11.20
2023-03-31T01:16:43.622Z,11.20
2023-03-31T01:19:28.665Z,11.20
2023-03-31T01:22:49.683Z,11.30
2023-03-31T01:26:12.943Z,11.40
2023-03-31T01:28:52.538Z,11.60
2023-03-31T01:32:12.225Z,11.60
2023-03-31T01:35:19.733Z,11.60
2023-03-31T01:39:16.486Z,11.70
2023-03-31T01:42:04.137Z,11.70
2023-03-31T01:44:46.661Z,11.90
2023-03-31T01:47:25.760Z,12.00
2023-03-31T01:50:06.205Z,12.00
2023-03-31T01:52:46.917Z,11.90
2023-03-31T01:55:27.199Z,12.00
2023-03-31T01:58:15.148Z,11.90
2023-03-31T02:00:57.116Z,11.90
2023-03-31T02:03:34.615Z,12.00
2023-03-31T02:06:15.961Z,11.90
2023-03-31T02:08:53.965Z,11.90
2023-03-31T02:11:25.774Z,11.90
2023-03-31T02:14:04.865Z,11.80
2023-03-31T02:16:41.984Z,11.90
2023-03-31T02:19:14.534Z,11.90
2023-03-31T02:21:51.673Z,11.90
2023-03-31T02:24:27.892Z,11.90
2023-03-31T02:27:10.825Z,11.90
2023-03-31T02:29:44.410Z,11.90
2023-03-31T02:32:24.187Z,11.90
2023-03-31T02:34:54.671Z,11.80
2023-03-31T02:37:25.463Z,11.70
2023-03-31T02:40:00.093Z,11.60
2023-03-31T02:42:30.865Z,11.70
2023-03-31T02:45:30.529Z,11.70
2023-03-31T02:48:01.107Z,11.60
2023-03-31T02:50:43.620Z,11.50
2023-03-31T02:53:26.772Z,11.50
2023-03-31T02:56:22.285Z,11.60
2023-03-31T02:59:13.074Z,11.50
2023-03-31T03:02:10.728Z,11.50
2023-03-31T03:05:29.773Z,11.60
2023-03-31T03:08:12.106Z,11.60
2023-03-31T03:11:03.181Z,11.60
2023-03-31T03:13:45.025Z,11.60
2023-03-31T03:16:24.734Z,11.70
2023-03-31T03:19:08.657Z,11.70
2023-03-31T03:21:39.106Z,11.60
2023-03-31T03:24:11.761Z,11.60
2023-03-31T03:26:41.915Z,11.60
2023-03-31T03:29:13.389Z,11.60
2023-03-31T03:31:43.771Z,11.50
2023-03-31T03:34:18.840Z,11.40
2023-03-31T03:36:49.977Z,11.30
2023-03-31T03:39:21.665Z,11.30
2023-03-31T03:41:51.845Z,11.30
2023-03-31T03:44:22.097Z,11.30
2023-03-31T03:46:52.369Z,11.40
2023-03-31T03:49:25.479Z,11.40
2023-03-31T03:51:55.763Z,11.50
2023-03-31T03:54:26.111Z,11.50
2023-03-31T03:56:56.409Z,11.50
2023-03-31T03:59:26.720Z,11.50
2023-03-31T04:01:57.012Z,11.50
2023-03-31T04:04:29.918Z,11.50
2023-03-31T04:07:00.155Z,11.50
2023-03-31T04:09:31.420Z,11.50
2023-03-31T04:12:01.744Z,11.50
2023-03-31T04:14:31.977Z,11.40
2023-03-31T04:17:04.327Z,11.50
2023-03-31T04:19:38.651Z,11.50
2023-03-31T04:22:11.886Z,11.50
2023-03-31T04:24:42.114Z,11.40
2023-03-31T04:27:13.633Z,11.40
2023-03-31T04:29:47.707Z,11.40
2023-03-31T04:32:22.029Z,11.40
2023-03-31T04:35:02.800Z,11.40
2023-03-31T04:37:39.054Z,11.40
2023-03-31T04:40:16.476Z,11.40
2023-03-31T04:42:48.080Z,11.40
2023-03-31T04:45:18.387Z,11.40
2023-03-31T04:47:48.675Z,11.30
2023-03-31T04:50:23.647Z,11.30
2023-03-31T04:52:53.942Z,11.30
2023-03-31T04:55:24.143Z,11.30
2023-03-31T04:57:54.517Z,11.30
2023-03-31T05:00:26.694Z,11.30
2023-03-31T05:02:57.249Z,11.30
2023-03-31T05:05:34.514Z,11.30
2023-03-31T05:08:04.889Z,11.40
2023-03-31T05:10:35.534Z,11.30
2023-03-31T05:13:05.903Z,11.40
2023-03-31T05:15:36.086Z,11.40
2023-03-31T05:18:09.094Z,11.40
2023-03-31T05:20:42.028Z,11.50
2023-03-31T05:23:12.384Z,11.50
2023-03-31T05:25:42.798Z,11.50
2023-03-31T05:28:13.143Z,11.50
2023-03-31T05:30:43.322Z,11.50
2023-03-31T05:33:15.049Z,11.40
2023-03-31T05:35:48.094Z,11.40
2023-03-31T05:38:18.286Z,11.30
2023-03-31T05:40:51.539Z,11.20
2023-03-31T05:43:21.784Z,11.20
2023-03-31T05:45:52.262Z,11.20
2023-03-31T05:48:22.528Z,11.20
2023-03-31T05:50:58.749Z,11.20
2023-03-31T05:53:30.265Z,11.20
2023-03-31T05:56:02.115Z,11.20
2023-03-31T05:58:33.419Z,11.10
2023-03-31T06:01:09.396Z,11.10
2023-03-31T06:03:43.043Z,11.10
2023-03-31T06:06:16.693Z,11.10
2023-03-31T06:08:48.866Z,11.00
2023-03-31T06:11:22.716Z,11.00
2023-03-31T06:13:53.786Z,11.10
2023-03-31T06:16:24.001Z,11.10
2023-03-31T06:18:55.962Z,11.20
2023-03-31T06:21:28.746Z,11.30
2023-03-31T06:24:00.549Z,11.40
2023-03-31T06:26:31.661Z,11.40
2023-03-31T06:29:01.849Z,11.50
2023-03-31T06:31:32.289Z,11.50
2023-03-31T06:34:02.685Z,11.50
2023-03-31T06:36:36.025Z,11.50
2023-03-31T06:39:06.677Z,11.60
2023-03-31T06:41:37.478Z,11.60
2023-03-31T06:44:10.640Z,11.60
2023-03-31T06:46:41.097Z,11.70
2023-03-31T06:49:11.553Z,11.90
2023-03-31T06:51:44.425Z,12.20
2023-03-31T06:54:15.861Z,12.30
2023-03-31T06:56:46.038Z,12.40
2023-03-31T06:59:16.487Z,12.60
2023-03-31T07:01:48.906Z,12.70
2023-03-31T07:04:19.808Z,13.20
2023-03-31T07:06:52.628Z,13.60
2023-03-31T07:09:24.131Z,13.90
2023-03-31T07:11:56.604Z,14.00
2023-03-31T07:14:27.521Z,13.90
2023-03-31T07:16:57.748Z,13.70
2023-03-31T07:19:28.339Z,13.60
2023-03-31T07:22:01.140Z,13.60
2023-03-31T07:24:31.424Z,13.60
2023-03-31T07:27:01.801Z,13.60
2023-03-31T07:29:32.176Z,13.70
2023-03-31T07:32:02.451Z,13.70
2023-03-31T07:34:37.747Z,13.90
2023-03-31T07:37:10.728Z,13.90
2023-03-31T07:39:40.915Z,13.90
2023-03-31T07:42:11.308Z,13.80
2023-03-31T07:44:41.706Z,13.80
2023-03-31T07:47:12.159Z,13.80
2023-03-31T07:49:44.558Z,13.70
2023-03-31T07:52:17.509Z,13.50
2023-03-31T07:54:50.795Z,13.40
2023-03-31T07:57:22.522Z,13.40
2023-03-31T07:59:55.177Z,13.40
2023-03-31T08:02:25.679Z,13.50
2023-03-31T08:04:56.411Z,13.60
2023-03-31T08:07:31.108Z,13.80
2023-03-31T08:10:02.677Z,14.00
2023-03-31T08:12:32.869Z,14.30
2023-03-31T08:15:03.268Z,14.30
2023-03-31T08:17:33.894Z,14.10
2023-03-31T08:20:07.976Z,13.90
2023-03-31T08:22:42.150Z,13.60
2023-03-31T08:25:14.233Z,13.40
2023-03-31T08:27:44.476Z,13.30
2023-03-31T08:30:16.709Z,13.30
2023-03-31T08:32:47.527Z,13.30
2023-03-31T08:35:17.934Z,13.40
2023-03-31T08:40:30.451Z,14.00
2023-03-31T08:43:10.557Z,14.80
2023-03-31T08:45:47.861Z,16.00
2023-03-31T08:48:29.299Z,17.10
2023-03-31T08:51:06.754Z,17.50
2023-03-31T08:53:46.610Z,17.90
2023-03-31T08:56:22.681Z,18.40
2023-03-31T08:58:55.762Z,19.10
2023-03-31T09:01:52.117Z,19.80
2023-03-31T09:04:51.715Z,19.60
2023-03-31T09:07:35.019Z,19.30
2023-03-31T09:10:29.031Z,18.90
2023-03-31T09:13:15.770Z,18.30
2023-03-31T09:15:53.496Z,18.20
2023-03-31T09:18:35.830Z,17.70
2023-03-31T09:21:20.185Z,17.10
2023-03-31T09:24:00.493Z,16.80
2023-03-31T09:26:43.253Z,16.80
2023-03-31T09:29:20.837Z,16.90
2023-03-31T09:31:51.108Z,17.50
2023-03-31T09:34:29.018Z,17.10
2023-03-31T09:36:59.185Z,16.50
2023-03-31T09:39:29.882Z,16.30
2023-03-31T09:42:02.731Z,16.30
2023-03-31T09:44:45.122Z,16.40
2023-03-31T09:47:24.163Z,16.50
2023-03-31T09:49:54.687Z,16.50
2023-03-31T09:52:33.849Z,16.30
2023-03-31T09:55:07.647Z,16.00
2023-03-31T09:57:43.374Z,15.60
2023-03-31T10:00:21.478Z,15.40
2023-03-31T10:02:54.551Z,15.20
2023-03-31T10:05:33.399Z,14.90
2023-03-31T10:08:34.597Z,14.90
2023-03-31T10:11:14.956Z,14.80
2023-03-31T10:13:59.114Z,14.70
2023-03-31T10:16:35.046Z,14.60
2023-03-31T10:19:22.496Z,14.50
2023-03-31T10:22:01.063Z,14.10
2023-03-31T10:24:41.744Z,13.90
2023-03-31T10:27:26.393Z,13.70
2023-03-31T10:30:01.933Z,13.50
2023-03-31T10:32:35.557Z,13.40
2023-03-31T10:35:16.292Z,13.30
2023-03-31T10:37:46.685Z,13.10
2023-03-31T10:40:26.405Z,12.80
2023-03-31T10:43:12.085Z,12.60
2023-03-31T10:45:52.081Z,12.70
2023-03-31T10:48:29.586Z,13.30
2023-03-31T10:51:08.105Z,13.50
2023-03-31T10:53:46.410Z,13.80
2023-03-31T10:56:40.840Z,13.90
2023-03-31T10:59:32.601Z,14.00
2023-03-31T11:02:55.226Z,14.10
2023-03-31T11:05:37.580Z,13.80
2023-03-31T11:08:47.278Z,13.30
2023-03-31T11:11:52.866Z,13.20
2023-03-31T11:14:47.119Z,13.10
2023-03-31T11:17:39.211Z,13.10
2023-03-31T11:20:30.896Z,13.40
2023-03-31T11:23:13.664Z,13.70
2023-03-31T11:25:56.407Z,13.90
2023-03-31T11:29:04.084Z,14.10
2023-03-31T11:31:48.382Z,14.10
2023-03-31T11:34:54.970Z,14.20
2023-03-31T11:38:08.497Z,14.30
2023-03-31T11:40:56.971Z,14.50
2023-03-31T11:43:36.857Z,14.70
2023-03-31T11:46:13.208Z,14.60
2023-03-31T11:48:57.483Z,14.60
2023-03-31T11:51:38.101Z,14.40
2023-03-31T11:54:12.431Z,14.20
2023-03-31T11:56:44.834Z,13.80
2023-03-31T11:59:21.492Z,13.60
2023-03-31T12:02:01.158Z,13.50
2023-03-31T12:04:40.976Z,13.30
2023-03-31T12:07:32.964Z,13.30
2023-03-31T12:10:15.480Z,13.50
2023-03-31T12:12:52.255Z,13.60
2023-03-31T12:15:32.976Z,14.00
2023-03-31T12:18:12.983Z,14.30
2023-03-31T12:20:50.643Z,14.30
2023-03-31T12:23:31.581Z,14.40
2023-03-31T12:26:18.409Z,14.50
2023-03-31T12:28:56.012Z,14.40
2023-03-31T12:31:33.679Z,14.30
2023-03-31T12:34:10.455Z,14.40
2023-03-31T12:37:00.935Z,14.60
2023-03-31T12:39:53.870Z,14.80
2023-03-31T12:43:25.208Z,15.10
2023-03-31T12:46:10.051Z,15.50
2023-03-31T12:49:02.338Z,15.70
2023-03-31T12:52:01.099Z,16.00
2023-03-31T12:55:32.350Z,16.30
2023-03-31T12:58:40.698Z,16.20
2023-03-31T13:02:21.838Z,15.80
2023-03-31T13:04:53.566Z,15.30
2023-03-31T13:07:44.273Z,15.00
2023-03-31T13:10:34.019Z,14.70
2023-03-31T13:13:08.338Z,14.10
2023-03-31T13:15:38.602Z,13.60
2023-03-31T13:18:11.057Z,13.50
2023-03-31T13:20:43.639Z,13.70
2023-03-31T13:23:25.772Z,14.00
2023-03-31T13:26:00.382Z,14.30
2023-03-31T13:28:46.737Z,14.60
2023-03-31T13:31:18.550Z,14.80
2023-03-31T13:33:58.612Z,15.00
2023-03-31T13:37:14.032Z,15.00
2023-03-31T13:40:08.985Z,15.10
2023-03-31T13:43:24.717Z,15.20
2023-03-31T13:46:22.732Z,15.20
2023-03-31T13:49:12.863Z,15.40
2023-03-31T13:51:59.865Z,15.50
2023-03-31T13:55:20.953Z,15.60
2023-03-31T13:58:59.308Z,15.50
2023-03-31T14:02:06.945Z,15.40
2023-03-31T14:05:26.618Z,15.40
2023-03-31T14:08:01.578Z,15.20
2023-03-31T14:10:36.429Z,15.10
2023-03-31T14:13:18.453Z,15.00
2023-03-31T14:15:54.561Z,14.90
2023-03-31T14:18:33.727Z,14.80
2023-03-31T14:21:23.191Z,14.80
2023-03-31T14:24:08.331Z,14.90
2023-03-31T14:26:59.908Z,15.00
2023-03-31T14:29:42.298Z,15.20
2023-03-31T14:32:29.178Z,15.20
2023-03-31T14:35:29.553Z,15.10
2023-03-31T14:38:00.747Z,15.10
2023-03-31T14:40:31.109Z,15.10
2023-03-31T14:43:02.264Z,15.00
2023-03-31T14:45:34.787Z,15.00
2023-03-31T14:48:16.511Z,15.00
2023-03-31T14:50:50.246Z,15.00
2023-03-31T14:53:26.466Z,15.00
2023-03-31T14:56:09.101Z,15.00
2023-03-31T14:58:45.773Z,15.00
2023-03-31T15:01:24.074Z,14.90
2023-03-31T15:03:57.531Z,14.90
2023-03-31T15:06:33.362Z,14.90
2023-03-31T15:09:07.151Z,14.70
2023-03-31T15:11:37.474Z,14.60
2023-03-31T15:14:08.770Z,14.60
2023-03-31T15:16:45.156Z,14.60
2023-03-31T15:19:19.628Z,14.50
2023-03-31T15:22:01.946Z,14.50
2023-03-31T15:24:33.228Z,14.40
2023-03-31T15:27:14.871Z,14.50
2023-03-31T15:29:50.552Z,14.40
2023-03-31T15:32:29.124Z,14.30
2023-03-31T15:38:01.551Z,14.30
2023-03-31T15:40:35.409Z,14.30
2023-03-31T15:43:25.422Z,14.30
2023-03-31T15:46:00.759Z,14.20
2023-03-31T15:48:35.905Z,14.20
2023-03-31T15:51:20.950Z,14.20
2023-03-31T15:53:56.074Z,14.10
2023-03-31T15:56:38.349Z,14.10
2023-03-31T15:59:11.542Z,14.10
2023-03-31T16:01:48.694Z,14.00
2023-03-31T16:04:20.739Z,14.00
2023-03-31T16:06:58.372Z,14.10
2023-03-31T16:09:50.699Z,14.10
2023-03-31T16:12:28.138Z,14.10
2023-03-31T16:15:05.897Z,14.10
2023-03-31T16:17:43.856Z,14.00
2023-03-31T16:20:24.793Z,14.00
2023-03-31T16:22:58.937Z,13.90
2023-03-31T16:25:44.940Z,13.90
2023-03-31T16:28:21.263Z,13.90
2023-03-31T16:30:53.372Z,13.80
2023-03-31T16:33:26.092Z,13.80
2023-03-31T16:35:59.379Z,13.80
2023-03-31T16:38:32.333Z,13.90
2023-03-31T16:41:05.212Z,13.90
2023-03-31T16:43:35.526Z,13.90
2023-03-31T16:46:06.778Z,14.00
2023-03-31T16:48:36.983Z,13.90
2023-03-31T16:51:10.172Z,13.90
2023-03-31T16:53:40.466Z,13.90
2023-03-31T16:56:14.707Z,13.90
2023-03-31T16:58:45.400Z,13.70
2023-03-31T17:01:16.799Z,13.60
2023-03-31T17:03:47.225Z,13.60
2023-03-31T17:06:17.867Z,13.60
2023-03-31T17:08:48.427Z,13.60
2023-03-31T17:11:21.633Z,13.50
2023-03-31T17:13:52.236Z,13.50
2023-03-31T17:16:29.373Z,13.50
2023-03-31T17:19:10.756Z,13.60
2023-03-31T17:21:41.131Z,13.50
2023-03-31T17:24:11.729Z,13.40
2023-03-31T17:26:47.122Z,13.30
2023-03-31T17:29:17.385Z,13.30
2023-03-31T17:31:48.155Z,13.30
2023-03-31T17:34:18.415Z,13.20
2023-03-31T17:36:51.301Z,13.10
2023-03-31T17:39:22.770Z,13.10
2023-03-31T17:41:55.608Z,13.00
2023-03-31T17:44:26.013Z,13.00
2023-03-31T17:46:56.335Z,12.90
2023-03-31T17:49:27.793Z,12.90
2023-03-31T17:51:58.101Z,12.80
2023-03-31T17:54:29.061Z,12.80
2023-03-31T17:57:01.922Z,12.70
2023-03-31T17:59:32.384Z,12.70
2023-03-31T18:02:02.719Z,12.60
2023-03-31T18:04:33.104Z,12.60
2023-03-31T18:07:03.328Z,12.60
2023-03-31T18:09:34.067Z,12.60
2023-03-31T18:12:07.499Z,12.60
2023-03-31T18:14:38.460Z,12.60
2023-03-31T18:17:08.864Z,12.60
2023-03-31T18:19:39.429Z,12.60
2023-03-31T18:22:09.591Z,12.60
2023-03-31T18:24:40.940Z,12.60
2023-03-31T18:27:13.745Z,12.60
2023-03-31T18:29:43.956Z,12.50
2023-03-31T18:32:15.672Z,12.50
2023-03-31T18:34:45.935Z,12.40
2023-03-31T18:37:18.547Z,12.50
2023-03-31T18:39:49.048Z,12.50
2023-03-31T18:42:25.244Z,12.40
2023-03-31T18:44:56.333Z,12.40
2023-03-31T18:47:26.671Z,12.40
2023-03-31T18:49:58.281Z,12.30
2023-03-31T18:52:28.555Z,12.30
2023-03-31T18:54:58.843Z,12.30
2023-03-31T18:57:31.973Z,12.30
2023-03-31T19:00:02.297Z,12.30
2023-03-31T19:02:32.622Z,12.30
2023-03-31T19:05:02.911Z,12.30
2023-03-31T19:07:33.398Z,12.20
2023-03-31T19:10:05.118Z,12.10
2023-03-31T19:12:38.025Z,12.10
2023-03-31T19:15:13.582Z,12.10
2023-03-31T19:17:43.779Z,12.10
2023-03-31T19:20:16.810Z,12.10
2023-03-31T19:22:49.409Z,12.10
2023-03-31T19:25:22.831Z,12.00
2023-03-31T19:27:57.990Z,11.90
2023-03-31T19:30:28.401Z,11.90
2023-03-31T19:33:01.802Z,11.80
2023-03-31T19:35:34.160Z,11.70
2023-03-31T19:38:05.197Z,11.80
2023-03-31T19:40:35.489Z,11.70
2023-03-31T19:43:12.726Z,11.70
2023-03-31T19:45:42.960Z,11.60
2023-03-31T19:48:13.173Z,11.60
2023-03-31T19:50:43.602Z,11.70
2023-03-31T19:53:13.878Z,11.70
2023-03-31T19:55:44.313Z,11.70
2023-03-31T19:58:17.116Z,11.70
2023-03-31T20:00:47.336Z,11.60
2023-03-31T20:03:20.521Z,11.60
2023-03-31T20:05:52.096Z,11.60
2023-03-31T20:08:22.579Z,11.60
2023-03-31T20:10:52.934Z,11.50
2023-03-31T20:13:25.957Z,11.60
2023-03-31T20:16:08.739Z,11.50
2023-03-31T20:18:43.619Z,11.50
